createdAt,value
2022-10-03T00:01:37.718Z,1.77
2022-10-03T00:04:19.657Z,1.00
2022-10-03T00:07:02.179Z,1.47
2022-10-03T00:09:56.328Z,1.60
2022-10-03T00:12:47.317Z,2.30
2022-10-03T00:15:22.926Z,1.70
2022-10-03T00:18:02.227Z,1.47
2022-10-03T00:20:45.118Z,1.20
2022-10-03T00:23:22.470Z,1.40
2022-10-03T00:26:22.068Z,1.87
2022-10-03T00:28:58.898Z,1.33
2022-10-03T00:31:40.337Z,2.07
2022-10-03T00:34:19.542Z,2.13
2022-10-03T00:36:55.369Z,1.33
2022-10-03T00:39:40.173Z,1.30
2022-10-03T00:42:29.383Z,1.27
2022-10-03T00:45:35.810Z,1.30
2022-10-03T00:48:25.590Z,1.60
2022-10-03T00:51:06.494Z,1.60
2022-10-03T00:53:51.697Z,2.23
2022-10-03T00:56:48.119Z,1.37
2022-10-03T00:59:32.033Z,1.80
2022-10-03T01:02:18.121Z,1.70
2022-10-03T01:04:56.093Z,1.93
2022-10-03T01:07:43.633Z,1.73
2022-10-03T01:10:20.035Z,1.63
2022-10-03T01:13:13.990Z,2.10
2022-10-03T01:15:52.930Z,3.00
2022-10-03T01:18:33.227Z,1.50
2022-10-03T01:21:09.679Z,2.13
2022-10-03T01:24:06.981Z,2.10
2022-10-03T01:26:59.429Z,2.30
2022-10-03T01:29:59.708Z,1.27
2022-10-03T01:32:34.106Z,1.60
2022-10-03T01:35:22.379Z,1.60
2022-10-03T01:37:59.626Z,1.80
2022-10-03T01:40:32.890Z,2.00
2022-10-03T01:43:07.997Z,1.63
2022-10-03T01:45:45.422Z,1.60
2022-10-03T01:48:23.558Z,1.43
2022-10-03T01:51:00.842Z,2.10
2022-10-03T01:53:41.775Z,1.83
2022-10-03T01:56:16.865Z,2.10
2022-10-03T01:58:56.659Z,1.47
2022-10-03T02:01:32.587Z,2.20
2022-10-03T02:04:08.051Z,1.43
2022-10-03T02:06:45.724Z,1.60
2022-10-03T02:09:24.837Z,2.40
2022-10-03T02:12:05.539Z,1.73
2022-10-03T02:14:46.286Z,1.70
2022-10-03T02:17:26.035Z,1.50
2022-10-03T02:20:02.828Z,2.30
2022-10-03T02:22:36.022Z,2.50
2022-10-03T02:25:19.989Z,2.10
2022-10-03T02:28:19.359Z,2.50
2022-10-03T02:31:20.520Z,1.77
2022-10-03T02:34:25.688Z,1.93
2022-10-03T02:37:10.526Z,1.90
2022-10-03T02:40:11.237Z,2.50
2022-10-03T02:43:18.038Z,2.07
2022-10-03T02:46:05.581Z,2.47
2022-10-03T02:49:00.485Z,2.17
2022-10-03T02:52:00.995Z,2.10
2022-10-03T02:55:10.290Z,1.70
2022-10-03T02:58:12.149Z,2.03
2022-10-03T03:01:22.202Z,1.60
2022-10-03T03:04:14.441Z,3.10
2022-10-03T03:07:30.890Z,1.50
2022-10-03T03:10:31.194Z,2.17
2022-10-03T03:13:35.592Z,1.93
2022-10-03T03:16:44.190Z,2.40
2022-10-03T03:19:39.247Z,2.40
2022-10-03T03:22:25.324Z,2.43
2022-10-03T03:25:11.374Z,2.60
2022-10-03T03:27:53.895Z,1.97
2022-10-03T03:30:24.846Z,2.27
2022-10-03T03:33:11.248Z,2.13
2022-10-03T03:35:52.404Z,2.80
2022-10-03T03:38:31.197Z,2.43
2022-10-03T03:41:34.742Z,2.10
2022-10-03T03:44:32.297Z,1.77
2022-10-03T03:47:15.037Z,2.03
2022-10-03T03:50:08.442Z,2.87
2022-10-03T03:52:51.480Z,2.00
2022-10-03T03:55:40.675Z,2.10
2022-10-03T03:58:27.926Z,3.07
2022-10-03T04:01:24.290Z,2.60
2022-10-03T04:04:05.542Z,2.30
2022-10-03T04:06:47.877Z,2.27
2022-10-03T04:09:32.066Z,2.70
2022-10-03T04:12:10.188Z,2.20
2022-10-03T04:15:01.547Z,2.40
2022-10-03T04:18:00.321Z,2.03
2022-10-03T04:20:44.833Z,2.83
2022-10-03T04:23:25.958Z,2.30
2022-10-03T04:26:12.273Z,2.90
2022-10-03T04:28:55.308Z,2.17
2022-10-03T04:31:41.987Z,2.67
2022-10-03T04:34:26.140Z,1.67
2022-10-03T04:37:28.318Z,2.20
2022-10-03T04:40:18.747Z,2.57
2022-10-03T04:42:58.319Z,2.20
2022-10-03T04:45:59.807Z,2.63
2022-10-03T04:48:41.733Z,2.13
2022-10-03T04:51:20.193Z,2.50
2022-10-03T04:53:56.614Z,1.80
2022-10-03T04:57:15.473Z,2.40
2022-10-03T05:00:15.054Z,2.13
2022-10-03T05:02:51.864Z,2.40
2022-10-03T05:05:28.283Z,2.20
2022-10-03T05:08:13.357Z,2.73
2022-10-03T05:11:06.186Z,2.20
2022-10-03T05:13:50.206Z,1.93
2022-10-03T05:16:32.287Z,2.90
2022-10-03T05:19:22.578Z,2.70
2022-10-03T05:21:56.914Z,2.83
2022-10-03T05:24:34.457Z,2.13
2022-10-03T05:27:13.344Z,1.93
2022-10-03T05:29:46.342Z,2.70
2022-10-03T05:32:24.878Z,2.17
2022-10-03T05:35:06.836Z,2.90
2022-10-03T05:37:53.622Z,1.70
2022-10-03T05:40:25.243Z,2.43
2022-10-03T05:43:04.844Z,2.50
2022-10-03T05:45:41.221Z,2.33
2022-10-03T05:48:18.897Z,2.40
2022-10-03T05:51:17.617Z,2.90
2022-10-03T05:54:10.437Z,3.23
2022-10-03T05:57:02.254Z,2.57
2022-10-03T06:00:06.307Z,2.77
2022-10-03T06:02:55.246Z,2.80
2022-10-03T06:05:32.935Z,3.60
2022-10-03T06:08:32.141Z,2.90
2022-10-03T06:11:12.588Z,2.40
2022-10-03T06:14:02.068Z,2.63
2022-10-03T06:16:39.287Z,1.97
2022-10-03T06:19:17.571Z,2.27
2022-10-03T06:22:31.777Z,2.50
2022-10-03T06:25:44.273Z,2.00
2022-10-03T06:29:00.062Z,2.70
2022-10-03T06:31:57.473Z,2.77
2022-10-03T06:35:04.655Z,2.37
2022-10-03T06:37:58.567Z,2.07
2022-10-03T06:40:52.028Z,3.40
2022-10-03T06:43:50.903Z,2.30
2022-10-03T06:46:42.269Z,2.13
2022-10-03T06:49:42.878Z,2.43
2022-10-03T06:52:34.747Z,2.60
2022-10-03T06:55:48.801Z,2.90
2022-10-03T06:58:44.775Z,3.27
2022-10-03T07:01:48.383Z,2.90
2022-10-03T07:04:49.458Z,2.70
2022-10-03T07:08:06.075Z,3.13
2022-10-03T07:10:50.213Z,2.40
2022-10-03T07:13:50.773Z,3.57
2022-10-03T07:19:42.565Z,3.10
2022-10-03T07:23:02.768Z,4.00
2022-10-03T07:26:07.346Z,3.13
2022-10-03T07:29:05.063Z,3.03
2022-10-03T07:31:46.530Z,2.83
2022-10-03T07:34:34.257Z,3.17
2022-10-03T07:37:41.642Z,3.13
2022-10-03T07:40:40.995Z,3.50
2022-10-03T07:43:45.102Z,2.90
2022-10-03T07:46:54.507Z,3.03
2022-10-03T07:49:51.247Z,2.83
2022-10-03T07:52:57.395Z,2.57
2022-10-03T07:55:52.295Z,2.77
2022-10-03T07:58:39.179Z,2.90
2022-10-03T08:01:27.948Z,3.20
2022-10-03T08:04:36.656Z,3.10
2022-10-03T08:07:19.439Z,2.60
2022-10-03T08:10:10.971Z,2.70
2022-10-03T08:13:08.042Z,2.70
2022-10-03T08:16:01.349Z,2.17
2022-10-03T08:19:02.096Z,2.70
2022-10-03T08:21:48.772Z,1.80
2022-10-03T08:24:36.099Z,2.33
2022-10-03T08:27:27.538Z,2.00
2022-10-03T08:30:14.269Z,2.50
2022-10-03T08:33:18.721Z,2.50
2022-10-03T08:36:26.474Z,3.00
2022-10-03T08:39:11.515Z,2.60
2022-10-03T08:42:07.875Z,2.73
2022-10-03T08:45:01.827Z,1.93
2022-10-03T08:48:08.756Z,1.83
2022-10-03T08:51:04.799Z,2.40
2022-10-03T08:54:11.606Z,2.40
2022-10-03T08:56:57.752Z,2.07
2022-10-03T09:00:09.635Z,1.90
2022-10-03T09:03:20.483Z,1.70
2022-10-03T09:06:09.775Z,1.80
2022-10-03T09:09:06.554Z,2.00
2022-10-03T09:12:18.133Z,2.03
2022-10-03T09:15:01.634Z,1.90
2022-10-03T09:18:06.788Z,2.60
2022-10-03T09:21:14.131Z,1.90
2022-10-03T09:24:05.047Z,1.77
2022-10-03T09:27:04.534Z,1.40
2022-10-03T09:29:56.630Z,1.90
2022-10-03T09:32:49.774Z,1.80
2022-10-03T09:36:01.895Z,1.50
2022-10-03T09:39:14.746Z,1.80
2022-10-03T09:42:27.874Z,1.60
2022-10-03T09:45:30.087Z,1.63
2022-10-03T09:48:34.219Z,1.50
2022-10-03T09:51:20.150Z,1.47
2022-10-03T09:54:17.778Z,1.27
2022-10-03T09:57:07.238Z,1.37
2022-10-03T10:00:27.189Z,1.43
2022-10-03T10:03:19.269Z,1.30
2022-10-03T10:06:24.524Z,0.97
2022-10-03T10:09:38.042Z,1.50
2022-10-03T10:12:30.292Z,1.40
2022-10-03T10:15:19.942Z,1.23
2022-10-03T10:18:20.448Z,1.10
2022-10-03T10:21:26.895Z,1.10
2022-10-03T10:24:07.942Z,1.50
2022-10-03T10:27:18.169Z,1.20
2022-10-03T10:30:15.051Z,1.00
2022-10-03T10:33:24.198Z,1.00
2022-10-03T10:36:47.293Z,0.90
2022-10-03T10:39:48.812Z,1.00
2022-10-03T10:42:59.414Z,0.90
2022-10-03T10:46:13.232Z,0.83
2022-10-03T10:49:35.761Z,1.20
2022-10-03T10:52:36.147Z,0.90
2022-10-03T10:55:52.493Z,1.00
2022-10-03T10:58:59.114Z,1.10
2022-10-03T11:02:06.242Z,1.13
2022-10-03T11:05:29.513Z,1.10
2022-10-03T11:08:31.035Z,0.97
2022-10-03T11:11:29.525Z,0.90
2022-10-03T11:14:30.030Z,0.83
2022-10-03T11:17:40.302Z,1.10
2022-10-03T11:20:46.542Z,1.27
2022-10-03T11:23:43.813Z,0.83
2022-10-03T11:26:54.563Z,1.17
2022-10-03T11:30:04.990Z,0.93
2022-10-03T11:33:14.922Z,0.80
2022-10-03T11:36:19.975Z,1.20
2022-10-03T11:38:56.729Z,0.90
2022-10-03T11:41:40.285Z,0.83
2022-10-03T11:44:20.329Z,0.80
2022-10-03T11:47:27.594Z,0.90
2022-10-03T11:50:32.159Z,0.90
2022-10-03T11:53:16.113Z,1.33
2022-10-03T11:55:51.714Z,0.90
2022-10-03T11:58:52.576Z,0.80
2022-10-03T12:01:36.138Z,0.80
2022-10-03T12:04:15.653Z,1.23
2022-10-03T12:07:18.271Z,1.10
2022-10-03T12:09:57.022Z,0.90
2022-10-03T12:12:36.336Z,1.13
2022-10-03T12:15:19.710Z,1.23
2022-10-03T12:17:55.515Z,0.87
2022-10-03T12:20:31.224Z,0.90
2022-10-03T12:23:07.758Z,0.70
2022-10-03T12:25:38.909Z,0.83
2022-10-03T12:28:16.319Z,0.70
2022-10-03T12:30:49.728Z,0.80
2022-10-03T12:33:39.308Z,1.00
2022-10-03T12:36:15.310Z,1.00
2022-10-03T12:38:57.853Z,1.07
2022-10-03T12:41:57.000Z,0.83
2022-10-03T12:44:40.796Z,1.13
2022-10-03T12:47:44.073Z,0.90
2022-10-03T12:50:30.755Z,0.80
2022-10-03T12:53:16.182Z,0.87
2022-10-03T12:55:54.378Z,0.80
2022-10-03T12:58:32.032Z,0.80
2022-10-03T13:01:12.383Z,1.00
2022-10-03T13:03:52.174Z,0.80
2022-10-03T13:07:08.967Z,0.80
2022-10-03T13:10:02.900Z,0.80
2022-10-03T13:12:43.546Z,1.00
2022-10-03T13:15:42.990Z,0.93
2022-10-03T13:18:21.469Z,0.90
2022-10-03T13:20:58.077Z,0.70
2022-10-03T13:23:39.492Z,0.70
2022-10-03T13:26:18.421Z,1.10
2022-10-03T13:29:17.347Z,0.80
2022-10-03T13:32:01.331Z,0.80
2022-10-03T13:34:35.121Z,1.43
2022-10-03T13:37:09.889Z,1.13
2022-10-03T13:39:48.953Z,0.80
2022-10-03T13:42:22.038Z,0.90
2022-10-03T13:44:55.299Z,1.00
2022-10-03T13:47:44.592Z,0.93
2022-10-03T13:50:21.198Z,0.80
2022-10-03T13:52:54.625Z,0.90
2022-10-03T13:55:33.450Z,0.87
2022-10-03T13:58:20.180Z,0.70
2022-10-03T14:00:59.427Z,1.10
2022-10-03T14:03:34.686Z,1.03
2022-10-03T14:06:13.895Z,1.00
2022-10-03T14:09:26.783Z,1.10
2022-10-03T14:12:01.345Z,0.87
2022-10-03T14:14:40.820Z,0.90
2022-10-03T14:17:14.634Z,0.80
2022-10-03T14:19:56.997Z,0.70
2022-10-03T14:22:42.247Z,0.90
2022-10-03T14:25:29.608Z,0.87
2022-10-03T14:28:04.425Z,1.43
2022-10-03T14:31:04.472Z,0.90
2022-10-03T14:33:39.910Z,1.00
2022-10-03T14:36:23.548Z,0.90
2022-10-03T14:39:07.249Z,0.80
2022-10-03T14:41:48.325Z,0.80
2022-10-03T14:44:21.199Z,1.00
2022-10-03T14:46:55.154Z,1.20
2022-10-03T14:52:33.358Z,0.80
2022-10-03T14:55:12.610Z,1.07
2022-10-03T14:58:05.964Z,0.93
2022-10-03T15:00:42.882Z,0.80
2022-10-03T15:03:33.704Z,0.77
2022-10-03T15:06:20.225Z,1.13
2022-10-03T15:08:51.579Z,1.17
2022-10-03T15:11:27.952Z,0.90
2022-10-03T15:13:58.623Z,0.73
2022-10-03T15:16:27.467Z,1.13
2022-10-03T15:18:58.692Z,0.80
2022-10-03T15:21:28.292Z,1.00
2022-10-03T15:23:59.917Z,1.23
2022-10-03T15:26:34.724Z,1.57
2022-10-03T15:29:06.253Z,0.90
2022-10-03T15:31:37.064Z,0.83
2022-10-03T15:34:08.413Z,0.80
2022-10-03T15:36:39.774Z,1.00
2022-10-03T15:39:19.775Z,0.80
2022-10-03T15:41:55.362Z,0.93
2022-10-03T15:44:32.909Z,0.77
2022-10-03T15:47:05.511Z,1.00
2022-10-03T15:49:39.239Z,0.70
2022-10-03T15:52:16.070Z,1.17
2022-10-03T15:54:48.782Z,1.00
2022-10-03T15:57:26.522Z,1.23
2022-10-03T16:00:03.021Z,0.90
2022-10-03T16:02:40.178Z,1.03
2022-10-03T16:05:19.791Z,1.30
2022-10-03T16:07:58.296Z,1.60
2022-10-03T16:10:29.012Z,0.80
2022-10-03T16:13:04.640Z,0.80
2022-10-03T16:15:50.188Z,0.97
2022-10-03T16:18:42.847Z,0.90
2022-10-03T16:21:16.005Z,0.80
2022-10-03T16:23:46.326Z,1.20
2022-10-03T16:26:22.561Z,1.17
2022-10-03T16:28:57.265Z,0.97
2022-10-03T16:31:28.549Z,0.90
2022-10-03T16:34:03.373Z,0.90
2022-10-03T16:36:33.514Z,1.37
2022-10-03T16:39:04.314Z,0.80
2022-10-03T16:41:34.850Z,1.00
2022-10-03T16:44:08.737Z,0.80
2022-10-03T16:46:40.395Z,0.97
2022-10-03T16:49:29.982Z,1.33
2022-10-03T16:52:03.094Z,1.07
2022-10-03T16:54:33.359Z,1.10
2022-10-03T16:57:04.698Z,1.00
2022-10-03T16:59:35.353Z,1.47
2022-10-03T17:02:07.177Z,1.63
2022-10-03T17:04:39.097Z,0.90
2022-10-03T17:07:14.362Z,0.90
2022-10-03T17:09:46.479Z,1.00
2022-10-03T17:15:33.869Z,1.00
2022-10-03T17:18:16.827Z,0.90
2022-10-03T17:20:48.252Z,0.90
2022-10-03T17:23:25.129Z,1.20
2022-10-03T17:26:03.698Z,1.00
2022-10-03T17:28:41.367Z,1.00
2022-10-03T17:31:31.270Z,1.40
2022-10-03T17:34:05.972Z,0.90
2022-10-03T17:37:06.832Z,0.90
2022-10-03T17:39:54.652Z,1.00
2022-10-03T17:42:39.199Z,1.10
2022-10-03T17:45:30.599Z,0.90
2022-10-03T17:48:07.129Z,0.87
2022-10-03T17:50:40.406Z,1.10
2022-10-03T17:53:20.179Z,0.97
2022-10-03T17:55:52.049Z,1.33
2022-10-03T17:58:22.787Z,1.27
2022-10-03T18:01:06.810Z,1.97
2022-10-03T18:03:42.727Z,0.90
2022-10-03T18:06:36.143Z,1.37
2022-10-03T18:09:19.186Z,2.20
2022-10-03T18:11:50.182Z,3.00
2022-10-03T18:14:31.873Z,21.13
2022-10-03T18:17:08.252Z,11.40
2022-10-03T18:19:57.717Z,9.17
2022-10-03T18:22:37.155Z,6.20
2022-10-03T18:25:37.114Z,7.17
2022-10-03T18:28:14.068Z,7.23
2022-10-03T18:30:47.685Z,4.53
2022-10-03T18:33:19.420Z,3.00
2022-10-03T18:35:51.332Z,2.73
2022-10-03T18:38:22.763Z,1.60
2022-10-03T18:40:54.654Z,2.23
2022-10-03T18:43:33.855Z,1.90
2022-10-03T18:46:12.448Z,1.30
2022-10-03T18:49:09.126Z,1.80
2022-10-03T18:51:41.233Z,1.67
2022-10-03T18:54:25.354Z,1.37
2022-10-03T18:57:06.419Z,1.47
2022-10-03T18:59:45.049Z,1.23
2022-10-03T19:02:26.284Z,1.80
2022-10-03T19:04:57.722Z,1.30
2022-10-03T19:07:29.754Z,1.33
2022-10-03T19:10:27.517Z,1.47
2022-10-03T19:13:02.841Z,1.30
2022-10-03T19:15:43.815Z,1.50
2022-10-03T19:18:22.608Z,1.40
2022-10-03T19:20:54.319Z,2.10
2022-10-03T19:23:27.453Z,1.30
2022-10-03T19:25:58.302Z,1.20
2022-10-03T19:28:30.581Z,2.47
2022-10-03T19:31:03.512Z,1.90
2022-10-03T19:33:33.997Z,1.93
2022-10-03T19:36:05.831Z,2.03
2022-10-03T19:38:38.766Z,1.90
2022-10-03T19:41:14.774Z,1.40
2022-10-03T19:43:45.877Z,1.70
2022-10-03T19:46:38.187Z,1.40
2022-10-03T19:49:30.757Z,1.60
2022-10-03T19:52:15.618Z,1.60
2022-10-03T19:54:52.589Z,1.53
2022-10-03T19:57:25.519Z,1.40
2022-10-03T19:59:56.261Z,1.67
2022-10-03T20:02:26.725Z,1.57
2022-10-03T20:04:57.662Z,1.40
2022-10-03T20:07:45.407Z,1.67
2022-10-03T20:10:42.422Z,1.90
2022-10-03T20:13:11.694Z,2.30
2022-10-03T20:15:44.259Z,2.00
2022-10-03T20:18:24.333Z,2.10
2022-10-03T20:20:57.009Z,2.10
2022-10-03T20:23:28.743Z,2.00
2022-10-03T20:26:06.079Z,2.00
2022-10-03T20:29:12.016Z,2.17
2022-10-03T20:31:40.872Z,1.93
2022-10-03T20:34:14.798Z,2.37
2022-10-03T20:36:48.858Z,1.93
2022-10-03T20:39:22.036Z,2.37
2022-10-03T20:42:03.701Z,1.90
2022-10-03T20:44:56.075Z,2.00
2022-10-03T20:47:39.051Z,1.67
2022-10-03T20:50:14.555Z,1.87
2022-10-03T20:52:42.957Z,1.87
2022-10-03T20:55:20.784Z,1.93
2022-10-03T20:57:56.651Z,2.37
2022-10-03T21:00:25.919Z,2.30
2022-10-03T21:02:58.890Z,2.20
2022-10-03T21:05:31.526Z,2.10
2022-10-03T21:08:02.913Z,2.07
2022-10-03T21:10:34.764Z,1.80
2022-10-03T21:13:09.117Z,1.97
2022-10-03T21:15:44.179Z,2.27
2022-10-03T21:18:22.182Z,2.33
2022-10-03T21:20:59.688Z,2.27
2022-10-03T21:23:29.147Z,1.90
2022-10-03T21:26:01.429Z,2.27
2022-10-03T21:28:35.220Z,2.40
2022-10-03T21:31:28.383Z,1.87
2022-10-03T21:34:07.208Z,1.90
2022-10-03T21:36:40.278Z,2.10
2022-10-03T21:39:18.549Z,1.90
2022-10-03T21:42:01.180Z,2.97
2022-10-03T21:44:54.367Z,2.20
2022-10-03T21:47:34.817Z,2.40
2022-10-03T21:50:06.974Z,2.00
2022-10-03T21:52:48.448Z,2.47
2022-10-03T21:55:51.305Z,1.90
2022-10-03T21:58:40.356Z,2.63
2022-10-03T22:01:18.775Z,1.87
2022-10-03T22:03:53.370Z,2.80
2022-10-03T22:06:25.372Z,2.00
2022-10-03T22:08:54.475Z,2.60
2022-10-03T22:11:35.418Z,1.97
2022-10-03T22:14:14.162Z,2.33
2022-10-03T22:16:49.811Z,2.67
2022-10-03T22:19:22.921Z,2.80
2022-10-03T22:22:04.752Z,2.37
2022-10-03T22:24:44.749Z,1.97
2022-10-03T22:27:18.692Z,2.47
2022-10-03T22:29:54.825Z,2.40
2022-10-03T22:32:29.765Z,2.17
2022-10-03T22:35:08.119Z,3.60
2022-10-03T22:37:36.686Z,2.60
2022-10-03T22:40:06.183Z,2.60
2022-10-03T22:42:40.205Z,1.93
2022-10-03T22:45:10.754Z,2.43
2022-10-03T22:47:41.236Z,2.40
2022-10-03T22:50:14.355Z,2.37
2022-10-03T22:52:48.142Z,2.50
2022-10-03T22:55:20.072Z,2.17
2022-10-03T22:57:48.630Z,2.03
2022-10-03T23:00:18.362Z,1.90
2022-10-03T23:02:55.038Z,2.50
2022-10-03T23:05:41.499Z,2.60
2022-10-03T23:08:19.420Z,2.40
2022-10-03T23:10:54.821Z,3.17
2022-10-03T23:13:31.443Z,2.73
2022-10-03T23:16:17.604Z,2.90
2022-10-03T23:19:01.467Z,3.47
2022-10-03T23:21:30.176Z,3.23
2022-10-03T23:24:04.911Z,3.00
2022-10-03T23:27:07.922Z,2.43
2022-10-03T23:29:35.937Z,2.70
2022-10-03T23:32:05.923Z,2.93
2022-10-03T23:35:16.594Z,3.13
2022-10-03T23:37:46.298Z,2.60
2022-10-03T23:40:39.801Z,2.47
2022-10-03T23:43:36.868Z,3.17
2022-10-03T23:46:09.815Z,2.63
2022-10-03T23:48:45.350Z,2.93
2022-10-03T23:51:19.298Z,2.70
2022-10-03T23:53:51.371Z,2.80
2022-10-03T23:56:31.347Z,2.27
2022-10-03T23:59:12.078Z,2.90
